Impacts METAR Board INFO
IDs:

KLGA - New York/La Guardia, NY, US

Updated at: 2344 UTC 24 Feb 2018
Potential Impact None Slight Moderate High
Time24/11Z 24/12Z 24/13Z 24/14Z 24/15Z 24/16Z 24/17Z 24/18Z 24/19Z 24/20Z 24/21Z 24/22Z 24/23Z
VIS10 10 10 10 10 10 10 10 10 10 6 7 10
CIG-- 16 260 260 260 95 90 90 70 90 55 55 65
CoverSCTBKNBKNBKNBKNBKNOVCOVCOVCOVCOVCOVCOVC
FltCatVFRMVFRVFRVFRVFRVFRVFRVFRVFRVFRVFRVFRVFR
WX--------------------RA---RA
WDir26026031030032032030033033033032033040
WSpd7 8 7 6 5 4 12 5 7 6 6 9 4
WGst-- -- -- -- -- -- -- -- -- -- -- -- --
Raw hourly METARs
KLGA 241051Z 26007KT 10SM SCT017 SCT190 08/05 A3016 RMK AO2 SLP211 T00780050
KLGA 241151Z 26008KT 10SM BKN016 BKN220 08/05 A3017 RMK AO2 SLP216 70007 T00780050 10078 20072 53012
KLGA 241251Z 31007KT 10SM FEW015 SCT220 BKN260 08/05 A3017 RMK AO2 SLP216 T00830050
KLGA 241351Z 30006KT 10SM FEW015 SCT220 BKN260 09/06 A3016 RMK AO2 SLP212 T00890056
KLGA 241451Z 32005KT 10SM FEW015 SCT100 SCT210 BKN260 10/05 A3015 RMK AO2 SLP210 T01000050 58007
KLGA 241551Z 32004KT 10SM BKN095 BKN210 BKN260 12/04 A3015 RMK AO2 SLP210 T01170044
KLGA 241651Z 30012KT 10SM OVC090 12/03 A3017 RMK AO2 PRESRR SLP216 T01170033
KLGA 241751Z 33005KT 10SM FEW080 BKN090 OVC200 12/04 A3015 RMK AO2 SLP208 T01170039 10122 20083 58002
KLGA 241851Z 33007KT 10SM FEW055 BKN070 OVC095 12/03 A3013 RMK AO2 SLP201 T01170033
KLGA 241951Z 33006KT 10SM SCT070 OVC090 11/04 A3014 RMK AO2 RAB24E46 SLP207 P0000 T01060039
KLGA 242051Z 32006KT 6SM RA FEW006 SCT025 OVC055 09/05 A3018 RMK AO2 RAB01 SLP218 P0004 60004 T00890050 51016
KLGA 242151Z 33009KT 7SM FEW006 SCT025 OVC055 09/05 A3018 RMK AO2 RAE44 SLP220 P0001 T00890050
KLGA 242251Z COR 04004KT 10SM -RA FEW020 OVC065 08/06 A3017 RMK AO2 RAB2153 SLP217 P0001 T00830056